sensor_id;sensor_type;location;lat;lon;timestamp;pressure;altitude;pressure_sealevel;temperature;humidity
48824;BME280;34640;53.590;10.054;2022-11-20T00:01:56;100738.84;;;2.49;100.00
48824;BME280;34640;53.590;10.054;2022-11-20T00:04:30;100748.88;;;2.46;100.00
48824;BME280;34640;53.590;10.054;2022-11-20T00:07:04;100748.59;;;2.43;100.00
48824;BME280;34640;53.590;10.054;2022-11-20T00:09:38;100745.25;;;2.44;100.00
48824;BME280;34640;53.590;10.054;2022-11-20T00:12:13;100746.56;;;2.49;100.00
48824;BME280;34640;53.590;10.054;2022-11-20T00:14:47;100747.59;;;2.51;100.00
48824;BME280;34640;53.590;10.054;2022-11-20T00:17:20;100743.22;;;2.50;100.00
48824;BME280;34640;53.590;10.054;2022-11-20T00:19:54;100742.59;;;2.53;100.00
48824;BME280;34640;53.590;10.054;2022-11-20T00:22:28;100741.84;;;2.54;100.00
48824;BME280;34640;53.590;10.054;2022-11-20T00:25:02;100749.69;;;2.55;100.00
48824;BME280;34640;53.590;10.054;2022-11-20T00:27:37;100739.50;;;2.47;100.00
48824;BME280;34640;53.590;10.054;2022-11-20T00:30:11;100737.41;;;2.42;100.00
48824;BME280;34640;53.590;10.054;2022-11-20T00:32:46;100743.31;;;2.41;100.00
48824;BME280;34640;53.590;10.054;2022-11-20T00:35:20;100750.44;;;2.35;100.00
48824;BME280;34640;53.590;10.054;2022-11-20T00:37:53;100743.56;;;2.26;100.00
48824;BME280;34640;53.590;10.054;2022-11-20T00:40:27;100744.75;;;2.29;100.00
48824;BME280;34640;53.590;10.054;2022-11-20T00:43:02;100736.50;;;2.23;100.00
48824;BME280;34640;53.590;10.054;2022-11-20T00:45:36;100735.25;;;2.28;100.00
48824;BME280;34640;53.590;10.054;2022-11-20T00:48:10;100740.78;;;2.33;100.00
48824;BME280;34640;53.590;10.054;2022-11-20T00:50:44;100737.31;;;2.32;100.00
48824;BME280;34640;53.590;10.054;2022-11-20T00:53:17;100734.59;;;2.31;100.00
48824;BME280;34640;53.590;10.054;2022-11-20T00:55:55;100732.94;;;2.31;100.00
48824;BME280;34640;53.590;10.054;2022-11-20T00:58:31;100733.09;;;2.33;100.00
48824;BME280;34640;53.590;10.054;2022-11-20T01:01:08;100726.75;;;2.29;100.00
48824;BME280;34640;53.590;10.054;2022-11-20T01:03:43;100725.09;;;2.30;100.00
48824;BME280;34640;53.590;10.054;2022-11-20T01:06:19;100733.09;;;2.33;100.00
48824;BME280;34640;53.590;10.054;2022-11-20T01:08:54;100723.72;;;2.33;100.00
48824;BME280;34640;53.590;10.054;2022-11-20T01:11:31;100716.84;;;2.42;100.00
48824;BME280;34640;53.590;10.054;2022-11-20T01:14:09;100721.22;;;2.43;100.00
48824;BME280;34640;53.590;10.054;2022-11-20T01:16:45;100722.19;;;2.35;100.00
48824;BME280;34640;53.590;10.054;2022-11-20T01:19:20;100721.13;;;2.33;100.00
48824;BME280;34640;53.590;10.054;2022-11-20T01:21:55;100718.06;;;2.37;100.00
48824;BME280;34640;53.590;10.054;2022-11-20T01:24:28;100721.41;;;2.36;100.00
48824;BME280;34640;53.590;10.054;2022-11-20T01:27:02;100711.28;;;2.38;100.00
48824;BME280;34640;53.590;10.054;2022-11-20T01:29:37;100710.88;;;2.33;100.00
48824;BME280;34640;53.590;10.054;2022-11-20T01:32:11;100706.63;;;2.34;100.00
48824;BME280;34640;53.590;10.054;2022-11-20T01:34:44;100705.44;;;2.30;100.00
48824;BME280;34640;53.590;10.054;2022-11-20T01:37:18;100702.88;;;2.30;100.00
48824;BME280;34640;53.590;10.054;2022-11-20T01:39:52;100688.84;;;2.27;100.00
48824;BME280;34640;53.590;10.054;2022-11-20T01:42:25;100687.81;;;2.25;100.00
48824;BME280;34640;53.590;10.054;2022-11-20T01:45:50;100688.59;;;2.24;100.00
48824;BME280;34640;53.590;10.054;2022-11-20T01:48:30;100691.03;;;2.22;100.00
48824;BME280;34640;53.590;10.054;2022-11-20T01:51:10;100685.13;;;2.23;100.00
48824;BME280;34640;53.590;10.054;2022-11-20T01:53:46;100687.97;;;2.26;100.00
48824;BME280;34640;53.590;10.054;2022-11-20T01:56:21;100686.97;;;2.15;100.00
48824;BME280;34640;53.590;10.054;2022-11-20T01:58:58;100677.31;;;2.13;100.00
48824;BME280;34640;53.590;10.054;2022-11-20T02:01:35;100683.94;;;2.20;100.00
48824;BME280;34640;53.590;10.054;2022-11-20T02:04:12;100683.44;;;2.24;100.00
48824;BME280;34640;53.590;10.054;2022-11-20T02:06:48;100675.88;;;2.25;100.00
48824;BME280;34640;53.590;10.054;2022-11-20T02:09:26;100678.31;;;2.24;100.00
48824;BME280;34640;53.590;10.054;2022-11-20T02:12:00;100666.78;;;2.10;100.00
48824;BME280;34640;53.590;10.054;2022-11-20T02:14:34;100668.28;;;2.08;100.00
48824;BME280;34640;53.590;10.054;2022-11-20T02:17:08;100669.97;;;2.07;100.00
48824;BME280;34640;53.590;10.054;2022-11-20T02:19:42;100666.00;;;2.11;100.00
48824;BME280;34640;53.590;10.054;2022-11-20T02:22:19;100667.63;;;2.19;100.00
48824;BME280;34640;53.590;10.054;2022-11-20T02:24:58;100668.44;;;2.09;100.00
48824;BME280;34640;53.590;10.054;2022-11-20T02:27:34;100663.66;;;2.04;100.00
48824;BME280;34640;53.590;10.054;2022-11-20T02:30:09;100664.19;;;2.10;100.00
48824;BME280;34640;53.590;10.054;2022-11-20T02:32:44;100656.78;;;2.13;100.00
48824;BME280;34640;53.590;10.054;2022-11-20T02:35:39;100655.09;;;2.13;100.00
48824;BME280;34640;53.590;10.054;2022-11-20T02:38:13;100648.28;;;2.14;100.00
48824;BME280;34640;53.590;10.054;2022-11-20T02:40:49;100658.16;;;2.09;100.00
48824;BME280;34640;53.590;10.054;2022-11-20T02:43:27;100659.47;;;2.14;100.00
48824;BME280;34640;53.590;10.054;2022-11-20T02:46:00;100658.88;;;2.17;100.00
48824;BME280;34640;53.590;10.054;2022-11-20T02:48:34;100653.44;;;2.14;100.00
48824;BME280;34640;53.590;10.054;2022-11-20T02:51:08;100651.63;;;2.13;100.00
48824;BME280;34640;53.590;10.054;2022-11-20T02:53:42;100649.06;;;2.13;100.00
48824;BME280;34640;53.590;10.054;2022-11-20T02:56:17;100645.09;;;2.17;100.00
48824;BME280;34640;53.590;10.054;2022-11-20T02:58:51;100644.97;;;2.15;100.00
48824;BME280;34640;53.590;10.054;2022-11-20T03:01:25;100633.03;;;2.15;100.00
48824;BME280;34640;53.590;10.054;2022-11-20T03:03:58;100641.22;;;2.11;100.00
48824;BME280;34640;53.590;10.054;2022-11-20T03:06:33;100636.72;;;2.09;100.00
48824;BME280;34640;53.590;10.054;2022-11-20T03:09:06;100629.78;;;2.08;100.00
48824;BME280;34640;53.590;10.054;2022-11-20T03:11:42;100635.94;;;2.10;100.00
48824;BME280;34640;53.590;10.054;2022-11-20T03:14:15;100639.91;;;2.06;100.00
48824;BME280;34640;53.590;10.054;2022-11-20T03:16:49;100637.34;;;2.06;100.00
48824;BME280;34640;53.590;10.054;2022-11-20T03:19:23;100638.72;;;2.03;100.00
48824;BME280;34640;53.590;10.054;2022-11-20T03:21:57;100641.44;;;2.04;100.00
48824;BME280;34640;53.590;10.054;2022-11-20T03:24:30;100639.91;;;2.06;100.00
48824;BME280;34640;53.590;10.054;2022-11-20T03:27:06;100644.78;;;2.03;100.00
48824;BME280;34640;53.590;10.054;2022-11-20T03:29:39;100641.56;;;2.06;100.00
48824;BME280;34640;53.590;10.054;2022-11-20T03:32:13;100640.31;;;2.11;100.00
48824;BME280;34640;53.590;10.054;2022-11-20T03:34:47;100639.69;;;2.13;100.00
48824;BME280;34640;53.590;10.054;2022-11-20T03:37:21;100639.38;;;2.19;100.00
48824;BME280;34640;53.590;10.054;2022-11-20T03:39:54;100631.44;;;2.07;100.00
48824;BME280;34640;53.590;10.054;2022-11-20T03:42:30;100635.59;;;2.15;100.00
48824;BME280;34640;53.590;10.054;2022-11-20T03:45:19;100635.75;;;2.17;100.00
48824;BME280;34640;53.590;10.054;2022-11-20T03:47:52;100636.22;;;2.13;100.00
48824;BME280;34640;53.590;10.054;2022-11-20T03:50:26;100635.59;;;2.15;100.00
48824;BME280;34640;53.590;10.054;2022-11-20T03:53:00;100620.50;;;2.19;100.00
48824;BME280;34640;53.590;10.054;2022-11-20T03:55:34;100622.16;;;2.18;100.00
48824;BME280;34640;53.590;10.054;2022-11-20T03:58:09;100619.72;;;2.20;100.00
48824;BME280;34640;53.590;10.054;2022-11-20T04:00:42;100611.88;;;2.18;100.00
48824;BME280;34640;53.590;10.054;2022-11-20T04:03:16;100612.47;;;2.15;100.00
48824;BME280;34640;53.590;10.054;2022-11-20T04:05:50;100616.25;;;2.19;100.00
48824;BME280;34640;53.590;10.054;2022-11-20T04:08:24;100610.22;;;2.19;100.00
48824;BME280;34640;53.590;10.054;2022-11-20T04:11:08;100610.28;;;2.10;100.00
48824;BME280;34640;53.590;10.054;2022-11-20T04:13:46;100616.72;;;2.15;100.00
48824;BME280;34640;53.590;10.054;2022-11-20T04:16:22;100617.34;;;2.12;100.00
48824;BME280;34640;53.590;10.054;2022-11-20T04:18:57;100612.66;;;2.17;100.00
48824;BME280;34640;53.590;10.054;2022-11-20T04:21:31;100619.16;;;2.13;100.00
48824;BME280;34640;53.590;10.054;2022-11-20T04:24:05;100608.47;;;2.09;100.00
48824;BME280;34640;53.590;10.054;2022-11-20T04:26:39;100608.19;;;2.06;100.00
48824;BME280;34640;53.590;10.054;2022-11-20T04:29:15;100611.53;;;2.05;100.00
48824;BME280;34640;53.590;10.054;2022-11-20T04:31:48;100608.97;;;2.05;100.00
48824;BME280;34640;53.590;10.054;2022-11-20T04:34:22;100606.75;;;1.99;100.00
48824;BME280;34640;53.590;10.054;2022-11-20T04:36:55;100606.63;;;1.98;100.00
48824;BME280;34640;53.590;10.054;2022-11-20T04:39:29;100608.56;;;2.00;100.00
48824;BME280;34640;53.590;10.054;2022-11-20T04:42:03;100608.19;;;2.06;100.00
48824;BME280;34640;53.590;10.054;2022-11-20T04:44:56;100600.63;;;2.07;100.00
48824;BME280;34640;53.590;10.054;2022-11-20T04:47:30;100600.63;;;2.07;100.00
48824;BME280;34640;53.590;10.054;2022-11-20T04:50:05;100600.50;;;2.06;100.00
48824;BME280;34640;53.590;10.054;2022-11-20T04:52:39;100598.69;;;2.05;100.00
48824;BME280;34640;53.590;10.054;2022-11-20T04:55:13;100601.25;;;2.05;100.00
48824;BME280;34640;53.590;10.054;2022-11-20T04:57:49;100605.09;;;2.00;100.00
48824;BME280;34640;53.590;10.054;2022-11-20T05:00:25;100594.03;;;2.01;100.00
48824;BME280;34640;53.590;10.054;2022-11-20T05:02:59;100594.31;;;2.04;100.00
48824;BME280;34640;53.590;10.054;2022-11-20T05:05:33;100585.31;;;1.99;100.00
48824;BME280;34640;53.590;10.054;2022-11-20T05:08:07;100582.59;;;1.97;100.00
48824;BME280;34640;53.590;10.054;2022-11-20T05:10:41;100579.72;;;1.94;100.00
48824;BME280;34640;53.590;10.054;2022-11-20T05:13:15;100574.00;;;1.97;100.00
48824;BME280;34640;53.590;10.054;2022-11-20T05:15:50;100576.44;;;1.95;100.00
48824;BME280;34640;53.590;10.054;2022-11-20T05:18:23;100574.00;;;1.97;100.00
48824;BME280;34640;53.590;10.054;2022-11-20T05:20:57;100571.56;;;1.98;100.00
48824;BME280;34640;53.590;10.054;2022-11-20T05:23:32;100564.91;;;2.00;100.00
48824;BME280;34640;53.590;10.054;2022-11-20T05:26:07;100560.03;;;2.03;100.00
48824;BME280;34640;53.590;10.054;2022-11-20T05:28:41;100558.84;;;2.00;100.00
48824;BME280;34640;53.590;10.054;2022-11-20T05:31:19;100555.41;;;1.99;100.00
48824;BME280;34640;53.590;10.054;2022-11-20T05:33:58;100555.53;;;2.01;100.00
48824;BME280;34640;53.590;10.054;2022-11-20T05:36:33;100559.91;;;2.02;100.00
48824;BME280;34640;53.590;10.054;2022-11-20T05:39:06;100552.06;;;2.00;100.00
48824;BME280;34640;53.590;10.054;2022-11-20T05:41:40;100557.31;;;2.02;100.00
48824;BME280;34640;53.590;10.054;2022-11-20T05:44:14;100554.50;;;1.99;100.00
48824;BME280;34640;53.590;10.054;2022-11-20T05:46:49;100550.41;;;2.01;100.00
48824;BME280;34640;53.590;10.054;2022-11-20T05:49:23;100551.28;;;2.01;100.00
48824;BME280;34640;53.590;10.054;2022-11-20T05:51:57;100546.53;;;1.96;100.00
48824;BME280;34640;53.590;10.054;2022-11-20T05:54:31;100544.09;;;1.97;100.00
48824;BME280;34640;53.590;10.054;2022-11-20T05:57:05;100543.59;;;2.01;100.00
48824;BME280;34640;53.590;10.054;2022-11-20T05:59:38;100537.31;;;2.08;100.00
48824;BME280;34640;53.590;10.054;2022-11-20T06:02:13;100542.69;;;2.01;100.00
48824;BME280;34640;53.590;10.054;2022-11-20T06:04:47;100542.97;;;2.04;100.00
48824;BME280;34640;53.590;10.054;2022-11-20T06:07:21;100543.22;;;2.07;100.00
48824;BME280;34640;53.590;10.054;2022-11-20T06:09:55;100539.63;;;2.05;100.00
48824;BME280;34640;53.590;10.054;2022-11-20T06:12:31;100546.56;;;2.06;100.00
48824;BME280;34640;53.590;10.054;2022-11-20T06:15:05;100551.69;;;2.06;100.00
48824;BME280;34640;53.590;10.054;2022-11-20T06:17:41;100544.22;;;1.99;100.00
48824;BME280;34640;53.590;10.054;2022-11-20T06:20:15;100535.88;;;2.01;100.00
48824;BME280;34640;53.590;10.054;2022-11-20T06:22:49;100546.53;;;1.96;100.00
48824;BME280;34640;53.590;10.054;2022-11-20T06:25:22;100545.63;;;1.95;100.00
48824;BME280;34640;53.590;10.054;2022-11-20T06:27:56;100550.13;;;1.98;100.00
48824;BME280;34640;53.590;10.054;2022-11-20T06:30:29;100552.81;;;1.99;100.00
48824;BME280;34640;53.590;10.054;2022-11-20T06:33:05;100558.38;;;2.04;100.00
48824;BME280;34640;53.590;10.054;2022-11-20T06:35:38;100556.56;;;2.03;100.00
48824;BME280;34640;53.590;10.054;2022-11-20T06:38:12;100550.41;;;2.01;100.00
48824;BME280;34640;53.590;10.054;2022-11-20T06:40:46;100543.19;;;1.97;100.00
48824;BME280;34640;53.590;10.054;2022-11-20T06:43:20;100539.84;;;1.98;100.00
48824;BME280;34640;53.590;10.054;2022-11-20T06:45:54;100548.38;;;1.88;100.00
48824;BME280;34640;53.590;10.054;2022-11-20T06:48:29;100548.50;;;1.90;100.00
48824;BME280;34640;53.590;10.054;2022-11-20T06:51:04;100535.53;;;1.88;100.00
48824;BME280;34640;53.590;10.054;2022-11-20T06:53:38;100542.69;;;1.82;100.00
48824;BME280;34640;53.590;10.054;2022-11-20T06:56:12;100545.91;;;1.79;100.00
48824;BME280;34640;53.590;10.054;2022-11-20T06:58:46;100551.78;;;1.78;100.00
48824;BME280;34640;53.590;10.054;2022-11-20T07:01:20;100540.34;;;1.75;100.00
48824;BME280;34640;53.590;10.054;2022-11-20T07:03:55;100528.41;;;1.75;100.00
48824;BME280;34640;53.590;10.054;2022-11-20T07:06:29;100538.69;;;1.75;100.00
48824;BME280;34640;53.590;10.054;2022-11-20T07:09:03;100538.38;;;1.72;100.00
48824;BME280;34640;53.590;10.054;2022-11-20T07:11:43;100542.91;;;1.75;100.00
48824;BME280;34640;53.590;10.054;2022-11-20T07:14:18;100549.09;;;1.77;100.00
48824;BME280;34640;53.590;10.054;2022-11-20T07:16:51;100536.53;;;1.80;100.00
48824;BME280;34640;53.590;10.054;2022-11-20T07:19:26;100545.63;;;1.76;100.00
48824;BME280;34640;53.590;10.054;2022-11-20T07:22:00;100545.41;;;1.83;100.00
48824;BME280;34640;53.590;10.054;2022-11-20T07:24:34;100534.22;;;1.83;100.00
48824;BME280;34640;53.590;10.054;2022-11-20T07:27:08;100537.56;;;1.82;100.00
48824;BME280;34640;53.590;10.054;2022-11-20T07:29:42;100542.16;;;1.76;100.00
48824;BME280;34640;53.590;10.054;2022-11-20T07:32:15;100546.38;;;1.75;100.00
48824;BME280;34640;53.590;10.054;2022-11-20T07:34:51;100541.38;;;1.77;100.00
48824;BME280;34640;53.590;10.054;2022-11-20T07:37:24;100540.25;;;1.83;100.00
48824;BME280;34640;53.590;10.054;2022-11-20T07:39:58;100539.00;;;1.89;100.00
48824;BME280;34640;53.590;10.054;2022-11-20T07:42:32;100540.69;;;1.88;100.00
48824;BME280;34640;53.590;10.054;2022-11-20T07:45:06;100545.03;;;1.89;100.00
48824;BME280;34640;53.590;10.054;2022-11-20T07:47:40;100543.50;;;1.91;100.00
48824;BME280;34640;53.590;10.054;2022-11-20T07:50:16;100536.72;;;1.92;100.00
48824;BME280;34640;53.590;10.054;2022-11-20T07:52:50;100539.56;;;1.95;100.00
48824;BME280;34640;53.590;10.054;2022-11-20T07:55:24;100539.09;;;1.99;100.00
48824;BME280;34640;53.590;10.054;2022-11-20T07:57:58;100530.41;;;1.88;100.00
48824;BME280;34640;53.590;10.054;2022-11-20T08:00:31;100537.56;;;2.01;100.00
48824;BME280;34640;53.590;10.054;2022-11-20T08:03:06;100533.72;;;2.06;100.00
48824;BME280;34640;53.590;10.054;2022-11-20T08:05:42;100533.22;;;2.10;100.00
48824;BME280;34640;53.590;10.054;2022-11-20T08:08:15;100536.16;;;2.04;100.00
48824;BME280;34640;53.590;10.054;2022-11-20T08:10:49;100536.81;;;2.12;100.00
48824;BME280;34640;53.590;10.054;2022-11-20T08:13:23;100532.03;;;2.25;100.00
48824;BME280;34640;53.590;10.054;2022-11-20T08:16:14;100533.59;;;2.33;100.00
48824;BME280;34640;53.590;10.054;2022-11-20T08:18:48;100546.34;;;2.42;100.00
48824;BME280;34640;53.590;10.054;2022-11-20T08:21:23;100539.00;;;2.36;100.00
48824;BME280;34640;53.590;10.054;2022-11-20T08:23:57;100536.91;;;2.32;100.00
48824;BME280;34640;53.590;10.054;2022-11-20T08:26:31;100534.34;;;2.32;100.00
48824;BME280;34640;53.590;10.054;2022-11-20T08:29:05;100538.66;;;2.42;100.00
48824;BME280;34640;53.590;10.054;2022-11-20T08:31:39;100544.97;;;2.45;100.00
48824;BME280;34640;53.590;10.054;2022-11-20T08:34:13;100539.97;;;2.57;100.00
48824;BME280;34640;53.590;10.054;2022-11-20T08:36:52;100548.38;;;2.65;100.00
48824;BME280;34640;53.590;10.054;2022-11-20T08:39:25;100543.56;;;2.59;100.00
48824;BME280;34640;53.590;10.054;2022-11-20T08:41:59;100538.94;;;2.55;100.00
48824;BME280;34640;53.590;10.054;2022-11-20T08:44:33;100546.50;;;2.54;100.00
48824;BME280;34640;53.590;10.054;2022-11-20T08:47:06;100547.34;;;2.63;100.00
48824;BME280;34640;53.590;10.054;2022-11-20T08:49:40;100535.53;;;2.75;100.00
48824;BME280;34640;53.590;10.054;2022-11-20T08:52:15;100546.97;;;2.79;100.00
48824;BME280;34640;53.590;10.054;2022-11-20T08:54:49;100548.28;;;2.84;100.00
48824;BME280;34640;53.590;10.054;2022-11-20T08:57:23;100549.59;;;2.89;100.00
48824;BME280;34640;53.590;10.054;2022-11-20T08:59:56;100544.66;;;2.82;100.00
48824;BME280;34640;53.590;10.054;2022-11-20T09:02:50;100546.75;;;2.86;100.00
48824;BME280;34640;53.590;10.054;2022-11-20T09:05:24;100549.34;;;2.96;100.00
48824;BME280;34640;53.590;10.054;2022-11-20T09:07:59;100550.34;;;2.88;100.00
48824;BME280;34640;53.590;10.054;2022-11-20T09:10:33;100553.78;;;2.78;100.00
48824;BME280;34640;53.590;10.054;2022-11-20T09:13:07;100544.78;;;2.73;100.00
48824;BME280;34640;53.590;10.054;2022-11-20T09:15:40;100552.63;;;2.74;100.00
48824;BME280;34640;53.590;10.054;2022-11-20T09:18:14;100544.91;;;2.64;100.00
48824;BME280;34640;53.590;10.054;2022-11-20T09:20:48;100543.28;;;2.46;100.00
48824;BME280;34640;53.590;10.054;2022-11-20T09:23:23;100551.63;;;2.43;100.00
48824;BME280;34640;53.590;10.054;2022-11-20T09:25:57;100549.81;;;2.42;100.00
48824;BME280;34640;53.590;10.054;2022-11-20T09:28:32;100544.06;;;2.45;100.00
48824;BME280;34640;53.590;10.054;2022-11-20T09:31:07;100540.84;;;2.48;100.00
48824;BME280;34640;53.590;10.054;2022-11-20T09:33:41;100540.84;;;2.48;100.00
48824;BME280;34640;53.590;10.054;2022-11-20T09:36:15;100537.13;;;2.54;100.00
48824;BME280;34640;53.590;10.054;2022-11-20T09:38:52;100532.38;;;2.59;100.00
48824;BME280;34640;53.590;10.054;2022-11-20T09:41:53;100540.00;;;2.67;100.00
48824;BME280;34640;53.590;10.054;2022-11-20T09:44:45;100544.81;;;2.83;100.00
48824;BME280;34640;53.590;10.054;2022-11-20T09:47:27;100554.94;;;2.82;100.00
48824;BME280;34640;53.590;10.054;2022-11-20T09:50:19;100550.75;;;2.82;100.00
48824;BME280;34640;53.590;10.054;2022-11-20T09:53:08;100547.56;;;3.15;100.00
48824;BME280;34640;53.590;10.054;2022-11-20T09:55:46;100552.09;;;3.38;100.00
48824;BME280;34640;53.590;10.054;2022-11-20T09:58:29;100550.66;;;3.11;100.00
48824;BME280;34640;53.590;10.054;2022-11-20T10:01:09;100551.06;;;3.26;100.00
48824;BME280;34640;53.590;10.054;2022-11-20T10:03:51;100545.25;;;3.18;100.00
48824;BME280;34640;53.590;10.054;2022-11-20T10:06:30;100547.06;;;3.19;100.00
48824;BME280;34640;53.590;10.054;2022-11-20T10:09:15;100549.75;;;3.21;100.00
48824;BME280;34640;53.590;10.054;2022-11-20T10:12:04;100551.19;;;3.37;100.00
48824;BME280;34640;53.590;10.054;2022-11-20T10:14:51;100544.22;;;3.47;100.00
48824;BME280;34640;53.590;10.054;2022-11-20T10:17:41;100545.28;;;3.49;100.00
48824;BME280;34640;53.590;10.054;2022-11-20T10:20:25;100544.63;;;3.41;100.00
48824;BME280;34640;53.590;10.054;2022-11-20T10:23:20;100538.47;;;3.29;100.00
48824;BME280;34640;53.590;10.054;2022-11-20T10:26:01;100531.34;;;3.16;100.00
48824;BME280;34640;53.590;10.054;2022-11-20T10:28:48;100538.78;;;3.03;100.00
48824;BME280;34640;53.590;10.054;2022-11-20T10:31:33;100543.59;;;3.09;100.00
48824;BME280;34640;53.590;10.054;2022-11-20T10:34:18;100531.34;;;2.96;100.00
48824;BME280;34640;53.590;10.054;2022-11-20T10:36:56;100534.41;;;3.02;100.00
48824;BME280;34640;53.590;10.054;2022-11-20T10:39:35;100527.88;;;3.05;100.00
48824;BME280;34640;53.590;10.054;2022-11-20T10:42:16;100525.06;;;3.13;100.00
48824;BME280;34640;53.590;10.054;2022-11-20T10:44:58;100530.97;;;3.12;100.00
48824;BME280;34640;53.590;10.054;2022-11-20T10:47:38;100524.91;;;3.21;100.00
48824;BME280;34640;53.590;10.054;2022-11-20T10:50:18;100525.81;;;3.42;100.00
48824;BME280;34640;53.590;10.054;2022-11-20T10:52:59;100517.84;;;3.59;100.00
48824;BME280;34640;53.590;10.054;2022-11-20T10:55:42;100520.25;;;3.68;100.00
48824;BME280;34640;53.590;10.054;2022-11-20T10:58:33;100526.59;;;3.61;100.00
48824;BME280;34640;53.590;10.054;2022-11-20T11:01:16;100526.84;;;3.44;100.00
48824;BME280;34640;53.590;10.054;2022-11-20T11:03:51;100527.63;;;3.43;100.00
48824;BME280;34640;53.590;10.054;2022-11-20T11:06:30;100526.75;;;3.32;100.00
48824;BME280;34640;53.590;10.054;2022-11-20T11:09:11;100520.19;;;3.36;100.00
48824;BME280;34640;53.590;10.054;2022-11-20T11:11:48;100512.19;;;3.33;100.00
48824;BME280;34640;53.590;10.054;2022-11-20T11:14:21;100511.19;;;3.31;100.00
48824;BME280;34640;53.590;10.054;2022-11-20T11:16:58;100513.09;;;3.33;100.00
48824;BME280;34640;53.590;10.054;2022-11-20T11:19:32;100496.50;;;3.50;100.00
48824;BME280;34640;53.590;10.054;2022-11-20T11:22:11;100502.13;;;3.46;100.00
48824;BME280;34640;53.590;10.054;2022-11-20T11:24:52;100502.78;;;3.44;100.00
48824;BME280;34640;53.590;10.054;2022-11-20T11:27:26;100496.88;;;3.45;100.00
48824;BME280;34640;53.590;10.054;2022-11-20T11:30:13;100502.16;;;3.36;100.00
48824;BME280;34640;53.590;10.054;2022-11-20T11:32:48;100498.72;;;3.25;100.00
48824;BME280;34640;53.590;10.054;2022-11-20T11:35:24;100498.72;;;3.25;100.00
48824;BME280;34640;53.590;10.054;2022-11-20T11:38:03;100503.19;;;3.18;100.00
48824;BME280;34640;53.590;10.054;2022-11-20T11:40:39;100501.09;;;3.03;100.00
48824;BME280;34640;53.590;10.054;2022-11-20T11:43:19;100503.97;;;3.17;100.00
48824;BME280;34640;53.590;10.054;2022-11-20T11:46:24;100503.56;;;3.22;100.00
48824;BME280;34640;53.590;10.054;2022-11-20T11:49:11;100501.38;;;3.17;100.00
48824;BME280;34640;53.590;10.054;2022-11-20T11:51:58;100492.13;;;3.09;100.00
48824;BME280;34640;53.590;10.054;2022-11-20T11:54:38;100493.66;;;3.17;100.00
48824;BME280;34640;53.590;10.054;2022-11-20T11:57:20;100497.16;;;3.17;100.00
48824;BME280;34640;53.590;10.054;2022-11-20T12:00:01;100492.78;;;3.26;100.00
48824;BME280;34640;53.590;10.054;2022-11-20T12:02:36;100500.88;;;3.31;100.00
48824;BME280;34640;53.590;10.054;2022-11-20T12:05:18;100492.66;;;3.35;100.00
48824;BME280;34640;53.590;10.054;2022-11-20T12:07:56;100490.69;;;3.22;100.00
48824;BME280;34640;53.590;10.054;2022-11-20T12:10:40;100497.94;;;3.26;100.00
48824;BME280;34640;53.590;10.054;2022-11-20T12:13:34;100498.31;;;3.31;100.00
48824;BME280;34640;53.590;10.054;2022-11-20T12:16:12;100486.56;;;3.45;100.00
48824;BME280;34640;53.590;10.054;2022-11-20T12:18:49;100489.03;;;3.53;100.00
48824;BME280;34640;53.590;10.054;2022-11-20T12:21:31;100490.06;;;3.35;100.00
48824;BME280;34640;53.590;10.054;2022-11-20T12:24:29;100484.66;;;3.42;100.00
48824;BME280;34640;53.590;10.054;2022-11-20T12:27:23;100481.31;;;3.43;100.00
48824;BME280;34640;53.590;10.054;2022-11-20T12:30:02;100480.28;;;3.51;100.00
48824;BME280;34640;53.590;10.054;2022-11-20T12:35:59;100471.75;;;3.62;100.00
48824;BME280;34640;53.590;10.054;2022-11-20T12:38:51;100475.59;;;3.67;100.00
48824;BME280;34640;53.590;10.054;2022-11-20T12:41:43;100466.97;;;3.67;100.00
48824;BME280;34640;53.590;10.054;2022-11-20T12:44:52;100461.56;;;3.64;100.00
48824;BME280;34640;53.590;10.054;2022-11-20T12:48:08;100460.66;;;3.74;100.00
48824;BME280;34640;53.590;10.054;2022-11-20T12:50:56;100454.22;;;3.68;100.00
48824;BME280;34640;53.590;10.054;2022-11-20T12:53:58;100457.06;;;3.61;100.00
48824;BME280;34640;53.590;10.054;2022-11-20T12:56:40;100455.81;;;3.56;100.00
48824;BME280;34640;53.590;10.054;2022-11-20T12:59:27;100452.75;;;3.50;100.00
48824;BME280;34640;53.590;10.054;2022-11-20T13:02:16;100453.88;;;3.44;100.00
48824;BME280;34640;53.590;10.054;2022-11-20T13:04:55;100452.75;;;3.50;100.00
48824;BME280;34640;53.590;10.054;2022-11-20T13:07:33;100458.88;;;3.62;100.00
48824;BME280;34640;53.590;10.054;2022-11-20T13:10:16;100456.78;;;3.68;100.00
48824;BME280;34640;53.590;10.054;2022-11-20T13:12:56;100454.38;;;3.70;100.00
48824;BME280;34640;53.590;10.054;2022-11-20T13:15:40;100453.06;;;3.75;100.00
48824;BME280;34640;53.590;10.054;2022-11-20T13:18:18;100455.00;;;3.67;100.00
48824;BME280;34640;53.590;10.054;2022-11-20T13:20:52;100446.00;;;3.62;100.00
48824;BME280;34640;53.590;10.054;2022-11-20T13:23:27;100447.06;;;3.54;100.00
48824;BME280;34640;53.590;10.054;2022-11-20T13:26:15;100444.69;;;3.67;100.00
48824;BME280;34640;53.590;10.054;2022-11-20T13:29:01;100445.22;;;3.74;100.00
48824;BME280;34640;53.590;10.054;2022-11-20T13:31:36;100438.75;;;3.79;100.00
48824;BME280;34640;53.590;10.054;2022-11-20T13:34:14;100443.59;;;3.96;100.00
48824;BME280;34640;53.590;10.054;2022-11-20T13:36:58;100444.38;;;3.95;100.00